createdAt,value
2023-04-12T00:00:04.242Z,68.80
2023-04-12T00:02:37.581Z,68.20
2023-04-12T00:05:06.715Z,67.90
2023-04-12T00:07:34.872Z,67.90
2023-04-12T00:10:03.218Z,67.30
2023-04-12T00:12:31.320Z,67.80
2023-04-12T00:15:01.471Z,68.70
2023-04-12T00:17:29.697Z,68.80
2023-04-12T00:19:58.731Z,69.10
2023-04-12T00:22:28.574Z,68.90
2023-04-12T00:24:56.741Z,69.90
2023-04-12T00:27:25.819Z,70.70
2023-04-12T00:29:54.001Z,70.30
2023-04-12T00:32:23.445Z,69.50
2023-04-12T00:34:52.581Z,70.10
2023-04-12T00:37:21.960Z,69.90
2023-04-12T00:39:50.203Z,70.10
2023-04-12T00:42:18.535Z,69.80
2023-04-12T00:44:46.698Z,69.60
2023-04-12T00:47:14.809Z,69.10
2023-04-12T00:49:44.302Z,68.70
2023-04-12T00:52:15.777Z,68.60
2023-04-12T00:54:45.063Z,67.50
2023-04-12T00:57:13.382Z,67.30
2023-04-12T00:59:41.932Z,67.20
2023-04-12T01:02:11.114Z,68.40
2023-04-12T01:04:43.634Z,68.20
2023-04-12T01:07:23.643Z,67.30
2023-04-12T01:10:00.421Z,67.60
2023-04-12T01:12:42.193Z,67.30
2023-04-12T01:15:15.614Z,68.70
2023-04-12T01:17:50.561Z,68.60
2023-04-12T01:20:23.488Z,69.60
2023-04-12T01:23:16.301Z,69.30
2023-04-12T01:26:03.124Z,69.60
2023-04-12T01:28:35.610Z,70.30
2023-04-12T01:31:06.691Z,70.70
2023-04-12T01:33:37.903Z,70.70
2023-04-12T01:36:12.022Z,71.60
2023-04-12T01:38:42.520Z,72.20
2023-04-12T01:41:11.464Z,73.30
2023-04-12T01:43:53.050Z,72.40
2023-04-12T01:46:24.038Z,72.90
2023-04-12T01:48:54.439Z,73.80
2023-04-12T01:51:40.231Z,73.00
2023-04-12T01:54:11.810Z,72.90
2023-04-12T01:56:42.651Z,73.40
2023-04-12T01:59:15.927Z,73.20
2023-04-12T02:01:45.272Z,73.40
2023-04-12T02:04:18.450Z,73.70
2023-04-12T02:06:48.040Z,72.80
2023-04-12T02:09:16.794Z,73.30
2023-04-12T02:11:48.641Z,73.00
2023-04-12T02:14:19.178Z,73.50
2023-04-12T02:16:48.156Z,73.80
2023-04-12T02:19:16.572Z,73.40
2023-04-12T02:21:46.031Z,73.40
2023-04-12T02:24:14.457Z,74.00
2023-04-12T02:26:42.606Z,73.10
2023-04-12T02:29:12.139Z,73.50
2023-04-12T02:31:42.568Z,73.10
2023-04-12T02:34:18.040Z,72.70
2023-04-12T02:36:51.782Z,71.20
2023-04-12T02:39:22.164Z,71.40
2023-04-12T02:41:52.461Z,72.20
2023-04-12T02:44:21.620Z,73.60
2023-04-12T02:47:14.125Z,72.50
2023-04-12T02:49:45.959Z,72.30
2023-04-12T02:52:16.868Z,72.60
2023-04-12T02:55:00.670Z,72.30
2023-04-12T02:57:28.976Z,72.20
2023-04-12T02:59:57.249Z,72.30
2023-04-12T03:02:31.110Z,72.40
2023-04-12T03:05:04.985Z,74.30
2023-04-12T03:07:40.136Z,73.60
2023-04-12T03:10:12.062Z,71.00
2023-04-12T03:12:45.279Z,71.20
2023-04-12T03:15:19.183Z,72.20
2023-04-12T03:17:51.632Z,73.30
2023-04-12T03:20:24.417Z,74.30
2023-04-12T03:23:01.636Z,74.10
2023-04-12T03:25:31.811Z,75.40
2023-04-12T03:28:11.047Z,77.80
2023-04-12T03:30:48.678Z,78.30
2023-04-12T03:33:21.310Z,78.30
2023-04-12T03:35:51.049Z,78.40
2023-04-12T03:38:19.407Z,78.10
2023-04-12T03:40:48.469Z,78.10
2023-04-12T03:43:20.043Z,78.30
2023-04-12T03:45:48.298Z,77.80
2023-04-12T03:48:16.828Z,78.50
2023-04-12T03:50:46.304Z,77.30
2023-04-12T03:53:24.710Z,77.40
2023-04-12T03:55:53.024Z,77.60
2023-04-12T03:58:21.804Z,77.80
2023-04-12T04:00:50.300Z,77.30
2023-04-12T04:03:18.906Z,75.80
2023-04-12T04:06:01.065Z,76.30
2023-04-12T04:08:33.134Z,76.50
2023-04-12T04:11:01.951Z,76.40
2023-04-12T04:13:37.859Z,74.70
2023-04-12T04:16:10.941Z,74.30
2023-04-12T04:18:41.198Z,74.80
2023-04-12T04:21:14.249Z,75.00
2023-04-12T04:23:44.600Z,74.10
2023-04-12T04:26:13.821Z,73.20
2023-04-12T04:28:50.278Z,73.30
2023-04-12T04:31:22.313Z,74.20
2023-04-12T04:33:51.662Z,72.90
2023-04-12T04:36:26.694Z,72.40
2023-04-12T04:38:57.314Z,72.70
2023-04-12T04:41:42.402Z,72.80
2023-04-12T04:44:15.994Z,72.80
2023-04-12T04:46:52.719Z,72.70
2023-04-12T04:49:21.117Z,72.50
2023-04-12T04:51:50.841Z,72.90
2023-04-12T04:54:19.983Z,72.90
2023-04-12T04:56:48.143Z,72.40
2023-04-12T04:59:20.107Z,72.70
2023-04-12T05:01:50.607Z,73.20
2023-04-12T05:04:18.962Z,72.20
2023-04-12T05:06:47.748Z,72.80
2023-04-12T05:09:21.191Z,71.30
2023-04-12T05:11:56.649Z,70.80
2023-04-12T05:14:37.443Z,72.10
2023-04-12T05:17:09.729Z,69.80
2023-04-12T05:19:37.845Z,71.10
2023-04-12T05:22:06.438Z,70.70
2023-04-12T05:24:36.270Z,72.00
2023-04-12T05:27:04.688Z,71.50
2023-04-12T05:29:32.997Z,70.70
2023-04-12T05:32:01.630Z,71.10
2023-04-12T05:34:30.409Z,71.30
2023-04-12T05:36:59.577Z,71.90
2023-04-12T05:39:31.880Z,71.00
2023-04-12T05:42:01.419Z,69.60
2023-04-12T05:44:29.801Z,71.30
2023-04-12T05:46:58.265Z,71.90
2023-04-12T05:49:30.477Z,71.20
2023-04-12T05:51:59.989Z,71.50
2023-04-12T05:54:28.184Z,69.20
2023-04-12T05:56:57.274Z,69.90
2023-04-12T05:59:27.415Z,69.60
2023-04-12T06:01:56.955Z,69.60
2023-04-12T06:04:41.935Z,69.40
2023-04-12T06:07:17.624Z,69.70
2023-04-12T06:09:46.248Z,67.60
2023-04-12T06:12:14.787Z,68.10
2023-04-12T06:14:44.389Z,66.50
2023-04-12T06:17:12.649Z,66.50
2023-04-12T06:19:41.513Z,66.10
2023-04-12T06:22:11.194Z,65.00
2023-04-12T06:24:41.537Z,64.10
2023-04-12T06:27:11.562Z,63.80
2023-04-12T06:29:39.785Z,64.10
2023-04-12T06:32:14.851Z,63.80
2023-04-12T06:34:43.267Z,63.90
2023-04-12T06:37:14.980Z,63.70
2023-04-12T06:39:43.085Z,62.80
2023-04-12T06:42:13.191Z,63.50
2023-04-12T06:44:42.712Z,63.80
2023-04-12T06:47:11.444Z,63.90
2023-04-12T06:49:41.186Z,62.90
2023-04-12T06:52:09.436Z,63.20
2023-04-12T06:54:38.397Z,62.30
2023-04-12T06:57:11.109Z,62.10
2023-04-12T06:59:39.247Z,61.00
2023-04-12T07:02:08.051Z,61.90
2023-04-12T07:04:36.243Z,61.40
2023-04-12T07:07:05.730Z,62.00
2023-04-12T07:09:33.917Z,60.90
2023-04-12T07:12:02.452Z,60.80
2023-04-12T07:14:30.756Z,60.50
2023-04-12T07:16:58.955Z,60.80
2023-04-12T07:19:27.171Z,60.30
2023-04-12T07:21:55.327Z,60.20
2023-04-12T07:24:24.972Z,60.00
2023-04-12T07:26:54.908Z,59.70
2023-04-12T07:29:23.114Z,59.70
2023-04-12T07:31:51.264Z,59.90
2023-04-12T07:34:19.591Z,59.70
2023-04-12T07:36:47.794Z,59.00
2023-04-12T07:39:15.886Z,59.20
2023-04-12T07:41:46.598Z,59.90
2023-04-12T07:44:15.039Z,59.60
2023-04-12T07:46:43.605Z,61.10
2023-04-12T07:49:11.752Z,61.70
2023-04-12T07:51:39.954Z,61.60
2023-04-12T07:54:08.414Z,62.10
2023-04-12T07:56:37.070Z,61.00
2023-04-12T07:59:06.626Z,61.60
2023-04-12T08:01:34.751Z,62.00
2023-04-12T08:04:03.698Z,61.20
2023-04-12T08:06:34.491Z,61.30
2023-04-12T08:09:02.751Z,61.00
2023-04-12T08:11:30.984Z,61.70
2023-04-12T08:13:59.180Z,60.50
2023-04-12T08:16:28.988Z,60.70
2023-04-12T08:18:58.031Z,60.90
2023-04-12T08:21:30.160Z,61.30
2023-04-12T08:23:58.504Z,61.50
2023-04-12T08:26:29.827Z,61.50
2023-04-12T08:28:58.730Z,61.00
2023-04-12T08:31:29.290Z,60.70
2023-04-12T08:33:57.589Z,60.50
2023-04-12T08:36:26.097Z,60.40
2023-04-12T08:38:56.082Z,60.70
2023-04-12T08:41:24.319Z,60.80
2023-04-12T08:43:53.229Z,61.50
2023-04-12T08:46:21.415Z,60.80
2023-04-12T08:48:54.588Z,61.40
2023-04-12T08:51:23.791Z,61.80
2023-04-12T08:53:54.028Z,63.00
2023-04-12T08:56:24.206Z,63.00
2023-04-12T08:58:53.742Z,62.70
2023-04-12T09:01:22.638Z,62.80
2023-04-12T09:03:52.325Z,63.90
2023-04-12T09:06:20.770Z,65.00
2023-04-12T09:08:53.574Z,64.60
2023-04-12T09:11:26.545Z,65.00
2023-04-12T09:13:55.670Z,64.70
2023-04-12T09:16:36.755Z,65.30
2023-04-12T09:19:06.892Z,65.60
2023-04-12T09:21:35.984Z,65.80
2023-04-12T09:24:10.765Z,66.10
2023-04-12T09:26:40.167Z,65.50
2023-04-12T09:29:24.433Z,66.10
2023-04-12T09:32:02.717Z,67.20
2023-04-12T09:34:33.282Z,65.50
2023-04-12T09:37:05.770Z,64.00
2023-04-12T09:39:34.950Z,63.90
2023-04-12T09:42:14.896Z,63.70
2023-04-12T09:44:54.383Z,63.80
2023-04-12T09:47:22.826Z,64.40
2023-04-12T09:49:52.731Z,64.20
2023-04-12T09:52:21.180Z,64.00
2023-04-12T09:54:49.829Z,64.20
2023-04-12T09:57:20.940Z,63.50
2023-04-12T09:59:51.218Z,63.80
2023-04-12T10:02:24.132Z,62.50
2023-04-12T10:04:55.069Z,62.60
2023-04-12T10:07:23.632Z,63.30
2023-04-12T10:09:52.751Z,63.90
2023-04-12T10:12:21.281Z,62.80
2023-04-12T10:14:50.272Z,62.60
2023-04-12T10:17:20.891Z,61.80
2023-04-12T10:19:50.424Z,62.50
2023-04-12T10:22:20.583Z,62.30
2023-04-12T10:24:49.530Z,61.60
2023-04-12T10:27:27.191Z,61.80
2023-04-12T10:29:55.923Z,61.50
2023-04-12T10:32:25.656Z,62.10
2023-04-12T10:35:00.666Z,62.30
2023-04-12T10:38:01.137Z,61.20
2023-04-12T10:40:29.825Z,61.40
2023-04-12T10:43:28.853Z,61.70
2023-04-12T10:45:58.907Z,62.50
2023-04-12T10:48:34.558Z,60.70
2023-04-12T10:51:23.300Z,61.60
2023-04-12T10:53:53.449Z,60.40
2023-04-12T10:56:39.628Z,60.00
2023-04-12T10:59:09.152Z,61.20
2023-04-12T11:01:43.799Z,61.20
2023-04-12T11:04:20.587Z,60.50
2023-04-12T11:07:11.842Z,61.10
2023-04-12T11:09:44.373Z,60.60
2023-04-12T11:12:40.609Z,60.30
2023-04-12T11:15:14.545Z,61.30
2023-04-12T11:17:55.776Z,62.00
2023-04-12T11:20:24.137Z,61.50
2023-04-12T11:22:53.415Z,62.10
2023-04-12T11:25:24.220Z,62.10
2023-04-12T11:27:53.540Z,61.50
2023-04-12T11:30:23.553Z,61.50
2023-04-12T11:32:52.275Z,61.40
2023-04-12T11:35:27.168Z,61.60
2023-04-12T11:37:57.483Z,61.20
2023-04-12T11:40:28.516Z,61.40
2023-04-12T11:42:57.903Z,61.20
2023-04-12T11:45:26.943Z,60.70
2023-04-12T11:47:58.025Z,60.80
2023-04-12T11:50:30.752Z,60.60
2023-04-12T11:53:11.815Z,59.90
2023-04-12T11:55:41.567Z,60.40
2023-04-12T11:58:09.722Z,60.20
2023-04-12T12:00:38.197Z,59.80
2023-04-12T12:03:08.594Z,57.50
2023-04-12T12:05:39.151Z,58.10
2023-04-12T12:08:08.952Z,58.70
2023-04-12T12:10:46.855Z,57.30
2023-04-12T12:13:25.361Z,57.70
2023-04-12T12:15:53.792Z,56.90
2023-04-12T12:18:27.443Z,57.00
2023-04-12T12:20:56.472Z,56.90
2023-04-12T12:23:31.882Z,56.40
2023-04-12T12:26:10.426Z,56.20
2023-04-12T12:28:52.344Z,55.90
2023-04-12T12:31:22.196Z,56.20
2023-04-12T12:33:52.581Z,55.90
2023-04-12T12:36:21.739Z,56.20
2023-04-12T12:38:54.061Z,56.30
2023-04-12T12:41:24.042Z,56.70
2023-04-12T12:43:56.252Z,56.40
2023-04-12T12:46:25.551Z,56.20
2023-04-12T12:48:57.577Z,56.90
2023-04-12T12:51:26.909Z,56.70
2023-04-12T12:53:55.211Z,56.60
2023-04-12T12:56:23.692Z,56.80
2023-04-12T12:58:53.143Z,60.40
2023-04-12T13:01:21.363Z,61.60
2023-04-12T13:03:50.142Z,63.90
2023-04-12T13:06:18.487Z,64.10
2023-04-12T13:08:46.812Z,63.20
2023-04-12T13:11:17.128Z,63.50
2023-04-12T13:13:46.463Z,65.10
2023-04-12T13:16:16.521Z,63.90
2023-04-12T13:18:45.270Z,64.10
2023-04-12T13:21:13.372Z,65.80
2023-04-12T13:23:41.462Z,63.30
2023-04-12T13:26:09.606Z,62.30
2023-04-12T13:28:37.781Z,62.30
2023-04-12T13:31:06.268Z,63.10
2023-04-12T13:33:35.864Z,62.80
2023-04-12T13:36:04.022Z,60.90
2023-04-12T13:38:32.117Z,61.60
2023-04-12T13:41:00.380Z,60.20
2023-04-12T13:43:28.807Z,58.10
2023-04-12T13:45:56.972Z,58.10
2023-04-12T13:48:25.224Z,58.60
2023-04-12T13:50:55.665Z,56.60
2023-04-12T13:53:24.009Z,58.20
2023-04-12T13:55:52.065Z,57.00
2023-04-12T13:58:20.149Z,56.10
2023-04-12T14:00:48.383Z,56.30
2023-04-12T14:03:16.591Z,54.50
2023-04-12T14:05:44.760Z,55.20
2023-04-12T14:08:14.279Z,57.40
2023-04-12T14:10:42.788Z,62.50
2023-04-12T14:13:11.040Z,67.70
2023-04-12T14:15:39.251Z,73.00
2023-04-12T14:18:07.531Z,74.30
2023-04-12T14:20:35.888Z,76.80
2023-04-12T14:23:05.717Z,78.00
2023-04-12T14:25:38.526Z,76.90
2023-04-12T14:28:06.868Z,74.40
2023-04-12T14:30:34.996Z,74.10
2023-04-12T14:33:03.301Z,72.80
2023-04-12T14:35:31.722Z,73.20
2023-04-12T14:38:00.194Z,71.50
2023-04-12T14:40:28.443Z,69.10
2023-04-12T14:42:57.987Z,71.00
2023-04-12T14:45:27.549Z,68.60
2023-04-12T14:47:55.953Z,66.80
2023-04-12T14:50:24.228Z,65.50
2023-04-12T14:52:52.379Z,66.80
2023-04-12T14:55:21.042Z,66.60
2023-04-12T14:57:49.117Z,67.10
2023-04-12T15:00:20.471Z,68.90
2023-04-12T15:02:49.903Z,69.30
2023-04-12T15:05:18.319Z,69.80
2023-04-12T15:07:47.732Z,70.10
2023-04-12T15:10:18.120Z,70.10
2023-04-12T15:12:46.241Z,71.10
2023-04-12T15:15:15.586Z,72.20
2023-04-12T15:17:46.523Z,72.40
2023-04-12T15:20:17.210Z,71.20
2023-04-12T15:22:45.513Z,72.30
2023-04-12T15:25:13.593Z,71.40
2023-04-12T15:27:41.880Z,72.10
2023-04-12T15:30:12.205Z,74.20
2023-04-12T15:32:42.603Z,73.30
2023-04-12T15:37:44.400Z,72.30
2023-04-12T15:40:14.027Z,73.20
2023-04-12T15:42:43.387Z,73.60
2023-04-12T15:45:12.429Z,71.80
2023-04-12T15:47:41.406Z,72.50
2023-04-12T15:50:10.312Z,73.00
2023-04-12T15:52:42.900Z,74.20
2023-04-12T15:55:12.401Z,75.00
2023-04-12T15:57:40.643Z,75.20
2023-04-12T16:00:20.941Z,75.30
2023-04-12T16:02:54.055Z,75.70
2023-04-12T16:05:22.554Z,75.30
2023-04-12T16:07:52.168Z,75.10
2023-04-12T16:10:23.911Z,75.40
2023-04-12T16:12:54.002Z,74.20
2023-04-12T16:15:22.287Z,73.90
2023-04-12T16:17:53.258Z,73.70
2023-04-12T16:20:22.380Z,74.30
2023-04-12T16:22:54.444Z,73.40
2023-04-12T16:25:24.099Z,73.70
2023-04-12T16:27:53.070Z,73.40
2023-04-12T16:30:22.653Z,73.50
2023-04-12T16:32:52.305Z,73.40
2023-04-12T16:35:20.451Z,73.30
2023-04-12T16:37:48.699Z,74.10
2023-04-12T16:40:18.372Z,73.90
2023-04-12T16:42:46.677Z,74.00
2023-04-12T16:45:15.527Z,73.90
2023-04-12T16:47:43.901Z,74.30
2023-04-12T16:50:13.549Z,74.50
2023-04-12T16:52:42.073Z,74.90
2023-04-12T16:55:12.294Z,74.30
2023-04-12T16:57:42.909Z,75.10
2023-04-12T17:00:19.598Z,76.80
2023-04-12T17:02:49.699Z,77.30
2023-04-12T17:05:19.918Z,78.00
2023-04-12T17:07:49.805Z,79.00
2023-04-12T17:10:19.420Z,79.90
2023-04-12T17:12:50.688Z,80.50
2023-04-12T17:15:20.861Z,79.80
2023-04-12T17:17:50.438Z,80.10
2023-04-12T17:20:20.253Z,80.70
2023-04-12T17:22:49.007Z,79.50
2023-04-12T17:25:18.832Z,79.40
2023-04-12T17:27:50.057Z,79.20
2023-04-12T17:30:18.738Z,79.40
2023-04-12T17:32:48.316Z,77.90
2023-04-12T17:35:17.865Z,77.10
2023-04-12T17:37:46.237Z,77.10
2023-04-12T17:40:15.341Z,76.30
2023-04-12T17:42:44.234Z,75.50
2023-04-12T17:45:16.087Z,76.00
2023-04-12T17:47:44.249Z,75.60
2023-04-12T17:50:13.122Z,76.10
2023-04-12T17:52:42.420Z,76.40
2023-04-12T17:55:12.244Z,76.70
2023-04-12T17:57:40.314Z,75.80
2023-04-12T18:00:11.671Z,76.10
2023-04-12T18:02:46.650Z,76.40
2023-04-12T18:05:15.497Z,77.00
2023-04-12T18:07:43.586Z,76.50
2023-04-12T18:10:18.317Z,76.50
2023-04-12T18:12:48.618Z,77.20
2023-04-12T18:15:18.070Z,76.60
2023-04-12T18:17:47.897Z,75.80
2023-04-12T18:20:16.527Z,76.30
2023-04-12T18:22:45.949Z,77.00
2023-04-12T18:25:14.300Z,76.70
2023-04-12T18:27:42.470Z,77.70
2023-04-12T18:30:10.949Z,77.30
2023-04-12T18:32:39.265Z,78.00
2023-04-12T18:35:09.859Z,78.10
2023-04-12T18:37:38.100Z,77.50
2023-04-12T18:40:08.331Z,77.90
2023-04-12T18:42:36.557Z,77.00
2023-04-12T18:45:05.124Z,77.10
2023-04-12T18:47:33.378Z,76.90
2023-04-12T18:50:01.632Z,75.80
2023-04-12T18:52:31.096Z,75.50
2023-04-12T18:54:59.184Z,74.90
2023-04-12T18:57:27.330Z,74.90
2023-04-12T18:59:55.560Z,74.80
2023-04-12T19:02:24.026Z,74.30
2023-04-12T19:04:52.189Z,74.90
2023-04-12T19:07:20.404Z,75.10
2023-04-12T19:09:49.973Z,75.90
2023-04-12T19:12:18.162Z,75.70
2023-04-12T19:14:46.231Z,75.80
2023-04-12T19:17:14.714Z,76.40
2023-04-12T19:19:42.993Z,76.20
2023-04-12T19:22:11.087Z,77.00
2023-04-12T19:24:39.165Z,77.20
2023-04-12T19:27:09.124Z,78.80
2023-04-12T19:29:37.160Z,79.10
2023-04-12T19:32:06.850Z,79.20
2023-04-12T19:34:35.189Z,80.40
2023-04-12T19:37:03.499Z,81.30
2023-04-12T19:39:32.447Z,83.00
2023-04-12T19:42:01.805Z,84.30
2023-04-12T19:44:31.436Z,82.70
2023-04-12T19:46:59.605Z,83.90
2023-04-12T19:49:27.971Z,85.40
2023-04-12T19:51:56.273Z,85.80
2023-04-12T19:54:25.555Z,86.80
2023-04-12T19:56:55.190Z,86.60
2023-04-12T19:59:25.337Z,86.80
2023-04-12T20:01:56.062Z,86.80
2023-04-12T20:04:25.035Z,85.50
2023-04-12T20:06:53.166Z,84.70
2023-04-12T20:09:22.408Z,83.40
2023-04-12T20:11:50.660Z,82.60
2023-04-12T20:14:18.785Z,81.10
2023-04-12T20:16:47.512Z,80.30
2023-04-12T20:19:18.119Z,78.10
2023-04-12T20:21:47.512Z,77.50
2023-04-12T20:24:15.655Z,76.30
2023-04-12T20:26:47.299Z,77.40
2023-04-12T20:29:16.086Z,77.00
2023-04-12T20:31:47.215Z,74.40
2023-04-12T20:34:17.644Z,74.70
2023-04-12T20:36:45.733Z,73.90
2023-04-12T20:39:13.885Z,73.10
2023-04-12T20:41:46.247Z,72.50
2023-04-12T20:44:14.340Z,72.20
2023-04-12T20:46:42.519Z,71.70
2023-04-12T20:49:11.092Z,71.20
2023-04-12T20:51:40.973Z,71.90
2023-04-12T20:54:09.539Z,70.80
2023-04-12T20:56:37.759Z,71.40
2023-04-12T20:59:05.910Z,71.80
2023-04-12T21:01:34.057Z,71.00
2023-04-12T21:04:06.238Z,70.10
2023-04-12T21:06:35.405Z,69.20
2023-04-12T21:09:05.936Z,69.40
2023-04-12T21:11:34.384Z,70.00
2023-04-12T21:14:02.444Z,70.70
2023-04-12T21:16:31.247Z,69.70
2023-04-12T21:18:59.780Z,68.30
2023-04-12T21:21:28.528Z,68.10
2023-04-12T21:23:56.901Z,67.90
2023-04-12T21:26:26.732Z,68.40
2023-04-12T21:28:55.058Z,67.90
2023-04-12T21:31:23.761Z,67.30
2023-04-12T21:33:51.936Z,67.10
2023-04-12T21:36:20.584Z,66.20
2023-04-12T21:38:49.137Z,66.10
2023-04-12T21:41:17.393Z,66.70
2023-04-12T21:43:47.846Z,67.00
2023-04-12T21:46:16.124Z,66.70
2023-04-12T21:48:44.465Z,67.10
2023-04-12T21:51:12.522Z,66.70
2023-04-12T21:53:40.815Z,67.40
2023-04-12T21:56:09.730Z,67.90
2023-04-12T21:58:37.907Z,67.40
2023-04-12T22:01:09.364Z,67.70
2023-04-12T22:03:38.183Z,67.10
2023-04-12T22:06:07.227Z,67.30
2023-04-12T22:08:35.324Z,67.90
2023-04-12T22:11:03.457Z,67.10
2023-04-12T22:13:31.713Z,67.10
2023-04-12T22:16:00.752Z,68.30
2023-04-12T22:18:31.730Z,67.40
2023-04-12T22:20:59.910Z,67.50
2023-04-12T22:23:27.950Z,67.10
2023-04-12T22:25:58.377Z,67.10
2023-04-12T22:28:26.496Z,66.80
2023-04-12T22:30:57.074Z,65.90
2023-04-12T22:33:25.336Z,66.20
2023-04-12T22:35:55.010Z,66.30
2023-04-12T22:38:23.102Z,66.10
2023-04-12T22:40:51.469Z,65.20
2023-04-12T22:43:22.406Z,65.10
2023-04-12T22:45:53.930Z,65.00
2023-04-12T22:48:24.956Z,65.00
2023-04-12T22:50:54.830Z,65.40
2023-04-12T22:53:22.980Z,64.60
2023-04-12T22:55:53.789Z,64.50
2023-04-12T22:58:21.854Z,64.70
2023-04-12T23:00:50.614Z,64.50
2023-04-12T23:03:19.222Z,64.40
2023-04-12T23:05:47.755Z,65.00
2023-04-12T23:08:20.179Z,65.70
2023-04-12T23:10:48.319Z,65.20
2023-04-12T23:13:16.528Z,65.70
2023-04-12T23:15:44.663Z,65.60
2023-04-12T23:18:12.849Z,65.00
2023-04-12T23:20:44.777Z,64.20
2023-04-12T23:23:13.532Z,63.30
2023-04-12T23:25:43.070Z,62.30
2023-04-12T23:28:14.109Z,62.50
2023-04-12T23:30:44.722Z,62.30
2023-04-12T23:33:13.988Z,61.00
2023-04-12T23:35:42.476Z,60.70
2023-04-12T23:38:15.454Z,61.30
2023-04-12T23:40:45.025Z,61.40
2023-04-12T23:43:13.103Z,61.60
2023-04-12T23:45:41.509Z,62.00
2023-04-12T23:48:09.708Z,62.50
2023-04-12T23:50:38.044Z,63.10
2023-04-12T23:53:06.184Z,63.30
2023-04-12T23:55:34.312Z,63.80
2023-04-12T23:58:04.085Z,64.60
